RYR18MD LOWW-LGIR
Flight info
| Callsign | RYR18MD |
|---|---|
| Flight time | N/A |
| Altitude | 37000 |
| Route | ARSIN DCT NALOX DCT OSDUK DCT SIVLA DCT PODOB DCT UTOMO DCT ENFAR DCT BITLA DCT KEA UL607 GIVIS T514 XAVIS |
| Aircraft | B738/M-SDE2E3FGHIRWXY/LB1 |
Departure
| Time | 2026-04-20 16:06 |
|---|---|
| Airport | Vienna International Airport (LOWW) |
Arrival
| Time | N/A |
|---|---|
| Airport | Heraklion International Nikos Kazantzakis Airport (LGIR) |
| Time | Latitude | Longitude | Altitude | Speed | Heading |
|---|---|---|---|---|---|
| 2026-04-20 15:52 | 48.11562 | 16.56732 | 610 ft | 0 kts | 206° |
| 2026-04-20 16:03 | 48.11562 | 16.56731 | 610 ft | 0 kts | 206° |
| 2026-04-20 16:03 | 48.11548 | 16.56721 | 614 ft | 5 kts | 206° |
| 2026-04-20 16:03 | 48.11497 | 16.56717 | 621 ft | 10 kts | 147° |
| 2026-04-20 16:03 | 48.11444 | 16.56841 | 613 ft | 19 kts | 117° |
| 2026-04-20 16:04 | 48.11383 | 16.57023 | 626 ft | 20 kts | 124° |
| 2026-04-20 16:04 | 48.11270 | 16.57098 | 619 ft | 18 kts | 124° |
| 2026-04-20 16:04 | 48.11209 | 16.57239 | 624 ft | 14 kts | 162° |
| 2026-04-20 16:04 | 48.11117 | 16.57198 | 623 ft | 15 kts | 207° |
| 2026-04-20 16:05 | 48.11053 | 16.57110 | 623 ft | 8 kts | 280° |
| 2026-04-20 16:05 | 48.11062 | 16.57078 | 626 ft | 0 kts | 295° |
| 2026-04-20 16:05 | 48.11063 | 16.57077 | 626 ft | 1 kts | 294° |
| 2026-04-20 16:06 | 48.11131 | 16.56868 | 627 ft | 61 kts | 295° |
| 2026-04-20 16:06 | 48.11436 | 16.55934 | 625 ft | 138 kts | 297° |
| 2026-04-20 16:06 | 48.11929 | 16.54379 | 874 ft | 182 kts | 297° |
| 2026-04-20 16:06 | 48.12435 | 16.52605 | 1942 ft | 184 kts | 286° |
| 2026-04-20 16:07 | 48.12339 | 16.50648 | 2804 ft | 199 kts | 251° |
| 2026-04-20 16:07 | 48.11412 | 16.49047 | 3513 ft | 211 kts | 214° |
| 2026-04-20 16:07 | 48.10009 | 16.48198 | 4154 ft | 227 kts | 202° |
| 2026-04-20 16:07 | 48.08390 | 16.47451 | 4438 ft | 259 kts | 199° |
| 2026-04-20 16:08 | 48.06519 | 16.47277 | 5072 ft | 279 kts | 175° |
| 2026-04-20 16:08 | 48.04585 | 16.47708 | 6014 ft | 282 kts | 174° |
| 2026-04-20 16:08 | 48.02635 | 16.48114 | 6975 ft | 283 kts | 176° |
| 2026-04-20 16:08 | 48.00675 | 16.48495 | 7928 ft | 284 kts | 176° |
| 2026-04-20 16:09 | 47.98715 | 16.48863 | 8920 ft | 284 kts | 177° |
| 2026-04-20 16:09 | 47.96757 | 16.48846 | 9805 ft | 280 kts | 200° |
| 2026-04-20 16:09 | 47.94979 | 16.47713 | 10504 ft | 284 kts | 212° |
| 2026-04-20 16:09 | 47.93153 | 16.46267 | 10725 ft | 309 kts | 212° |
| 2026-04-20 16:10 | 47.91236 | 16.44741 | 11297 ft | 321 kts | 212° |
| 2026-04-20 16:10 | 47.89221 | 16.43240 | 12089 ft | 328 kts | 205° |
| 2026-04-20 16:10 | 47.86921 | 16.42719 | 12876 ft | 345 kts | 181° |
| 2026-04-20 16:10 | 47.84534 | 16.43416 | 13746 ft | 353 kts | 170° |
| 2026-04-20 16:11 | 47.82140 | 16.44387 | 14460 ft | 359 kts | 169° |
| 2026-04-20 16:11 | 47.79725 | 16.45395 | 15223 ft | 362 kts | 169° |
| 2026-04-20 16:11 | 47.77283 | 16.46403 | 15968 ft | 365 kts | 170° |
| 2026-04-20 16:11 | 47.74813 | 16.47403 | 16710 ft | 369 kts | 171° |
| 2026-04-20 16:12 | 47.72322 | 16.48395 | 17455 ft | 372 kts | 171° |
| 2026-04-20 16:12 | 47.69809 | 16.49386 | 18204 ft | 375 kts | 172° |
| 2026-04-20 16:12 | 47.67271 | 16.50385 | 18826 ft | 380 kts | 171° |
| 2026-04-20 16:12 | 47.64793 | 16.51932 | 19359 ft | 399 kts | 150° |
| 2026-04-20 16:13 | 47.62789 | 16.54875 | 19957 ft | 414 kts | 127° |
| 2026-04-20 16:13 | 47.61482 | 16.58728 | 20562 ft | 422 kts | 114° |
| 2026-04-20 16:13 | 47.60364 | 16.62788 | 21118 ft | 427 kts | 114° |
| 2026-04-20 16:13 | 47.59228 | 16.66822 | 21651 ft | 432 kts | 115° |
| 2026-04-20 16:14 | 47.57792 | 16.70725 | 22158 ft | 432 kts | 133° |
| 2026-04-20 16:14 | 47.55572 | 16.73640 | 22727 ft | 424 kts | 154° |
| 2026-04-20 16:14 | 47.52941 | 16.75472 | 23310 ft | 415 kts | 170° |
| 2026-04-20 16:14 | 47.50136 | 16.76209 | 23791 ft | 407 kts | 183° |
| 2026-04-20 16:15 | 47.47302 | 16.76483 | 24204 ft | 410 kts | 185° |
| 2026-04-20 16:15 | 47.44429 | 16.76701 | 24617 ft | 415 kts | 185° |
| 2026-04-20 16:15 | 47.41534 | 16.76916 | 25045 ft | 418 kts | 185° |
| 2026-04-20 16:15 | 47.38615 | 16.77148 | 25502 ft | 420 kts | 186° |
| 2026-04-20 16:16 | 47.35682 | 16.77400 | 25931 ft | 424 kts | 186° |
| 2026-04-20 16:16 | 47.32717 | 16.77668 | 26302 ft | 429 kts | 186° |
| 2026-04-20 16:16 | 47.29719 | 16.77948 | 26691 ft | 434 kts | 186° |
| 2026-04-20 16:16 | 47.26696 | 16.78235 | 27077 ft | 438 kts | 187° |
| 2026-04-20 16:17 | 47.23641 | 16.78526 | 27418 ft | 443 kts | 187° |
| 2026-04-20 16:17 | 47.20550 | 16.78821 | 27795 ft | 446 kts | 187° |
| 2026-04-20 16:17 | 47.17436 | 16.79118 | 28142 ft | 450 kts | 187° |
| 2026-04-20 16:17 | 47.14301 | 16.79417 | 28503 ft | 454 kts | 187° |
| 2026-04-20 16:18 | 47.11132 | 16.79718 | 28853 ft | 457 kts | 187° |
| 2026-04-20 16:18 | 47.07943 | 16.80020 | 29202 ft | 461 kts | 187° |
| 2026-04-20 16:18 | 47.04732 | 16.80324 | 29549 ft | 464 kts | 187° |
| 2026-04-20 16:18 | 47.01496 | 16.80631 | 29888 ft | 468 kts | 187° |
| 2026-04-20 16:19 | 46.98287 | 16.80935 | 30181 ft | 471 kts | 187° |
| 2026-04-20 16:19 | 46.95013 | 16.81245 | 30463 ft | 472 kts | 187° |
| 2026-04-20 16:19 | 46.91721 | 16.81572 | 30800 ft | 476 kts | 184° |
| 2026-04-20 16:19 | 46.88404 | 16.82514 | 31069 ft | 495 kts | 171° |
| 2026-04-20 16:20 | 46.85178 | 16.84507 | 31353 ft | 512 kts | 158° |
| 2026-04-20 16:20 | 46.82220 | 16.87513 | 31624 ft | 525 kts | 145° |
| 2026-04-20 16:20 | 46.79441 | 16.90990 | 32046 ft | 524 kts | 144° |
| 2026-04-20 16:20 | 46.76706 | 16.94508 | 32451 ft | 524 kts | 143° |
| 2026-04-20 16:21 | 46.73975 | 16.98026 | 32769 ft | 523 kts | 143° |
| 2026-04-20 16:21 | 46.71291 | 17.01448 | 33168 ft | 521 kts | 143° |
| 2026-04-20 16:21 | 46.68555 | 17.04891 | 33601 ft | 519 kts | 144° |
| 2026-04-20 16:21 | 46.65816 | 17.08299 | 33974 ft | 518 kts | 144° |
| 2026-04-20 16:22 | 46.63065 | 17.11696 | 34247 ft | 518 kts | 144° |
| 2026-04-20 16:22 | 46.60312 | 17.15081 | 34561 ft | 516 kts | 144° |
| 2026-04-20 16:22 | 46.57575 | 17.18439 | 34921 ft | 514 kts | 143° |
| 2026-04-20 16:22 | 46.54845 | 17.21786 | 35314 ft | 510 kts | 143° |
| 2026-04-20 16:23 | 46.52144 | 17.25097 | 35744 ft | 506 kts | 143° |
| 2026-04-20 16:23 | 46.49465 | 17.28378 | 36128 ft | 503 kts | 143° |
| 2026-04-20 16:23 | 46.46797 | 17.31640 | 36510 ft | 498 kts | 143° |
| 2026-04-20 16:23 | 46.44160 | 17.34863 | 36960 ft | 494 kts | 143° |
| 2026-04-20 16:24 | 46.38896 | 17.41277 | 37022 ft | 500 kts | 143° |
| 2026-04-20 16:24 | 46.33574 | 17.47747 | 37014 ft | 497 kts | 143° |
| 2026-04-20 16:25 | 46.28299 | 17.54149 | 37018 ft | 493 kts | 143° |
| 2026-04-20 16:25 | 46.23044 | 17.60506 | 37025 ft | 492 kts | 143° |
| 2026-04-20 16:26 | 46.17794 | 17.66841 | 37026 ft | 490 kts | 143° |
| 2026-04-20 16:26 | 46.12553 | 17.73149 | 37026 ft | 490 kts | 143° |
| 2026-04-20 16:27 | 46.07317 | 17.79435 | 37022 ft | 490 kts | 143° |
| 2026-04-20 16:27 | 46.02075 | 17.85712 | 37023 ft | 490 kts | 143° |
| 2026-04-20 16:28 | 45.96854 | 17.91949 | 37023 ft | 490 kts | 143° |
| 2026-04-20 16:28 | 45.92498 | 17.97141 | 37016 ft | 489 kts | 143° |
| 2026-04-20 16:29 | 45.87319 | 18.03302 | 37024 ft | 490 kts | 143° |
| 2026-04-20 16:29 | 45.81176 | 18.10487 | 37015 ft | 488 kts | 149° |
| 2026-04-20 16:30 | 45.76227 | 18.14301 | 37026 ft | 479 kts | 164° |
| 2026-04-20 16:30 | 45.69880 | 18.16809 | 37006 ft | 472 kts | 172° |
| 2026-04-20 16:31 | 45.63526 | 18.19011 | 37024 ft | 473 kts | 172° |
| 2026-04-20 16:31 | 45.57116 | 18.21293 | 37023 ft | 475 kts | 171° |
| 2026-04-20 16:32 | 45.50692 | 18.23620 | 37018 ft | 476 kts | 171° |
| 2026-04-20 16:32 | 45.44268 | 18.25951 | 37015 ft | 477 kts | 171° |
| 2026-04-20 16:33 | 45.37825 | 18.28281 | 37025 ft | 478 kts | 171° |
| 2026-04-20 16:33 | 45.31375 | 18.30606 | 37022 ft | 479 kts | 171° |
| 2026-04-20 16:34 | 45.24914 | 18.32929 | 37022 ft | 479 kts | 171° |
| 2026-04-20 16:34 | 45.18443 | 18.35250 | 37021 ft | 479 kts | 171° |
| 2026-04-20 16:35 | 45.12019 | 18.37550 | 37026 ft | 479 kts | 171° |
| 2026-04-20 16:35 | 45.05610 | 18.40254 | 36994 ft | 482 kts | 166° |
| 2026-04-20 16:36 | 44.99318 | 18.43469 | 37007 ft | 481 kts | 165° |
| 2026-04-20 16:36 | 44.93032 | 18.46706 | 37016 ft | 480 kts | 165° |
| 2026-04-20 16:37 | 44.86743 | 18.49865 | 37014 ft | 479 kts | 165° |
| 2026-04-20 16:37 | 44.80460 | 18.52974 | 37017 ft | 478 kts | 165° |
| 2026-04-20 16:38 | 44.74195 | 18.56061 | 37014 ft | 477 kts | 165° |
| 2026-04-20 16:38 | 44.67930 | 18.59141 | 37016 ft | 476 kts | 166° |
| 2026-04-20 16:39 | 44.61680 | 18.62209 | 36986 ft | 475 kts | 165° |
| 2026-04-20 16:39 | 44.55442 | 18.65267 | 37014 ft | 474 kts | 165° |
| 2026-04-20 16:40 | 44.49228 | 18.68305 | 37026 ft | 473 kts | 165° |
| 2026-04-20 16:40 | 44.43010 | 18.71337 | 37020 ft | 473 kts | 165° |
| 2026-04-20 16:41 | 44.36803 | 18.74357 | 37008 ft | 472 kts | 165° |
| 2026-04-20 16:41 | 44.30596 | 18.77371 | 36975 ft | 472 kts | 165° |
| 2026-04-20 16:42 | 44.24417 | 18.80365 | 36964 ft | 473 kts | 165° |
| 2026-04-20 16:42 | 44.18196 | 18.83372 | 36943 ft | 473 kts | 165° |
| 2026-04-20 16:43 | 44.11977 | 18.86372 | 36949 ft | 473 kts | 165° |
| 2026-04-20 16:43 | 44.05753 | 18.89366 | 36955 ft | 473 kts | 165° |
| 2026-04-20 16:44 | 43.99529 | 18.92355 | 36951 ft | 474 kts | 165° |
| 2026-04-20 16:44 | 43.93330 | 18.95326 | 36932 ft | 474 kts | 165° |
| 2026-04-20 16:45 | 43.87093 | 18.98308 | 36942 ft | 474 kts | 165° |
| 2026-04-20 16:45 | 43.80945 | 19.01242 | 36934 ft | 474 kts | 165° |
| 2026-04-20 16:46 | 43.74703 | 19.04212 | 36920 ft | 474 kts | 165° |
| 2026-04-20 16:46 | 43.68476 | 19.07170 | 36917 ft | 472 kts | 165° |
| 2026-04-20 16:47 | 43.62267 | 19.10113 | 36929 ft | 472 kts | 165° |
| 2026-04-20 16:47 | 43.56061 | 19.13048 | 36908 ft | 471 kts | 165° |
| 2026-04-20 16:48 | 43.50061 | 19.16731 | 36944 ft | 476 kts | 153° |
| 2026-04-20 16:48 | 43.44383 | 19.21419 | 36943 ft | 476 kts | 152° |
| 2026-04-20 16:49 | 43.38703 | 19.26127 | 36941 ft | 476 kts | 152° |
| 2026-04-20 16:49 | 43.33002 | 19.30773 | 36918 ft | 476 kts | 153° |
| 2026-04-20 16:50 | 43.27292 | 19.35380 | 36936 ft | 475 kts | 153° |
| 2026-04-20 16:50 | 43.21587 | 19.39968 | 36944 ft | 475 kts | 153° |
| 2026-04-20 16:51 | 43.15922 | 19.44516 | 36960 ft | 475 kts | 153° |
| 2026-04-20 16:51 | 43.10216 | 19.49088 | 36955 ft | 476 kts | 153° |
| 2026-04-20 16:52 | 43.04597 | 19.53588 | 36933 ft | 456 kts | 153° |
| 2026-04-20 16:52 | 42.99202 | 19.57897 | 36945 ft | 447 kts | 153° |
| 2026-04-20 16:53 | 42.93830 | 19.62170 | 36970 ft | 446 kts | 153° |
| 2026-04-20 16:53 | 42.88462 | 19.66433 | 36952 ft | 446 kts | 153° |
| 2026-04-20 16:54 | 42.83099 | 19.70687 | 36957 ft | 446 kts | 153° |
| 2026-04-20 16:54 | 42.77732 | 19.74936 | 36979 ft | 446 kts | 153° |
| 2026-04-20 16:55 | 42.72360 | 19.79181 | 36973 ft | 447 kts | 153° |
| 2026-04-20 16:55 | 42.66976 | 19.83427 | 36941 ft | 448 kts | 153° |
| 2026-04-20 16:56 | 42.61592 | 19.87666 | 36988 ft | 447 kts | 153° |
| 2026-04-20 16:56 | 42.56205 | 19.91906 | 36993 ft | 447 kts | 153° |
| 2026-04-20 16:57 | 42.50808 | 19.96148 | 36969 ft | 448 kts | 153° |
| 2026-04-20 16:57 | 42.45484 | 20.00323 | 36959 ft | 449 kts | 153° |
| 2026-04-20 16:58 | 42.40073 | 20.04560 | 36961 ft | 449 kts | 153° |
| 2026-04-20 16:58 | 42.34665 | 20.08785 | 36962 ft | 448 kts | 153° |
| 2026-04-20 16:59 | 42.29263 | 20.12997 | 36982 ft | 448 kts | 153° |
| 2026-04-20 16:59 | 42.23842 | 20.17215 | 36984 ft | 450 kts | 153° |
| 2026-04-20 17:00 | 42.15698 | 20.23538 | 36973 ft | 451 kts | 153° |
| 2026-04-20 17:01 | 42.10253 | 20.27752 | 36970 ft | 451 kts | 153° |
| 2026-04-20 17:01 | 42.04809 | 20.31959 | 36975 ft | 450 kts | 153° |
| 2026-04-20 17:02 | 41.99393 | 20.36137 | 36973 ft | 448 kts | 153° |
| 2026-04-20 17:02 | 41.93976 | 20.40306 | 36976 ft | 448 kts | 153° |
| 2026-04-20 17:03 | 41.88596 | 20.44439 | 36988 ft | 448 kts | 153° |
| 2026-04-20 17:03 | 41.83167 | 20.48603 | 36983 ft | 449 kts | 153° |
| 2026-04-20 17:04 | 41.77742 | 20.52754 | 36987 ft | 448 kts | 153° |
| 2026-04-20 17:04 | 41.72482 | 20.57264 | 36970 ft | 449 kts | 147° |
| 2026-04-20 17:05 | 41.67407 | 20.62138 | 36972 ft | 449 kts | 146° |
| 2026-04-20 17:05 | 41.62362 | 20.66964 | 36975 ft | 449 kts | 147° |
| 2026-04-20 17:06 | 41.57258 | 20.71760 | 36966 ft | 449 kts | 147° |
| 2026-04-20 17:06 | 41.52136 | 20.76529 | 36966 ft | 450 kts | 147° |
| 2026-04-20 17:07 | 41.46999 | 20.81296 | 36973 ft | 450 kts | 147° |
| 2026-04-20 17:07 | 41.41848 | 20.86069 | 36977 ft | 451 kts | 147° |
| 2026-04-20 17:08 | 41.36684 | 20.90846 | 36983 ft | 453 kts | 147° |
| 2026-04-20 17:08 | 41.31504 | 20.95628 | 36993 ft | 454 kts | 147° |
| 2026-04-20 17:09 | 41.26354 | 21.00375 | 36972 ft | 454 kts | 147° |
| 2026-04-20 17:09 | 41.21159 | 21.05153 | 36967 ft | 454 kts | 147° |
| 2026-04-20 17:10 | 41.15966 | 21.09920 | 36975 ft | 453 kts | 147° |
| 2026-04-20 17:10 | 41.10780 | 21.14671 | 36985 ft | 453 kts | 147° |
| 2026-04-20 17:11 | 41.05596 | 21.19411 | 36976 ft | 453 kts | 147° |
| 2026-04-20 17:11 | 41.01283 | 21.23348 | 36952 ft | 453 kts | 147° |
| 2026-04-20 17:12 | 40.96117 | 21.28056 | 36956 ft | 452 kts | 147° |
| 2026-04-20 17:12 | 40.90943 | 21.32763 | 36976 ft | 451 kts | 147° |
| 2026-04-20 17:13 | 40.85775 | 21.37472 | 36972 ft | 450 kts | 146° |
| 2026-04-20 17:13 | 40.80687 | 21.42235 | 36970 ft | 450 kts | 146° |
| 2026-04-20 17:14 | 40.75588 | 21.47039 | 36973 ft | 450 kts | 146° |
| 2026-04-20 17:14 | 40.70471 | 21.51839 | 36967 ft | 451 kts | 146° |
| 2026-04-20 17:15 | 40.65343 | 21.56629 | 36961 ft | 451 kts | 146° |